createdAt,value
2022-11-27T00:00:00.473Z,91.89
2022-11-27T00:00:09.675Z,91.79
2022-11-27T00:00:19.628Z,91.89
2022-11-27T00:00:29.643Z,91.79
2022-11-27T00:00:39.677Z,91.79
2022-11-27T00:00:49.628Z,91.69
2022-11-27T00:00:59.650Z,91.54
2022-11-27T00:01:09.691Z,91.58
2022-11-27T00:01:19.718Z,91.69
2022-11-27T00:01:29.638Z,91.58
2022-11-27T00:01:39.678Z,91.58
2022-11-27T00:01:49.626Z,91.58
2022-11-27T00:01:59.646Z,91.44
2022-11-27T00:02:09.721Z,91.44
2022-11-27T00:02:19.664Z,91.48
2022-11-27T00:02:30.575Z,91.38
2022-11-27T00:02:40.942Z,91.48
2022-11-27T00:02:49.724Z,91.48
2022-11-27T00:02:59.821Z,91.48
2022-11-27T00:03:09.826Z,91.48
2022-11-27T00:03:19.782Z,91.48
2022-11-27T00:03:29.812Z,91.38
2022-11-27T00:03:39.850Z,91.38
2022-11-27T00:03:49.680Z,91.38
2022-11-27T00:03:59.772Z,91.38
2022-11-27T00:04:10.557Z,91.48
2022-11-27T00:04:19.690Z,91.38
2022-11-27T00:04:29.639Z,91.38
2022-11-27T00:04:39.609Z,91.38
2022-11-27T00:04:49.892Z,91.38
2022-11-27T00:04:59.641Z,91.48
2022-11-27T00:05:09.687Z,91.38
2022-11-27T00:05:19.642Z,91.38
2022-11-27T00:05:29.652Z,91.44
2022-11-27T00:05:39.610Z,91.34
2022-11-27T00:05:49.613Z,91.38
2022-11-27T00:06:00.495Z,91.38
2022-11-27T00:06:09.610Z,91.38
2022-11-27T00:06:19.625Z,91.38
2022-11-27T00:06:29.669Z,91.42
2022-11-27T00:06:39.615Z,91.38
2022-11-27T00:06:49.632Z,91.38
2022-11-27T00:06:59.617Z,91.38
2022-11-27T00:07:09.698Z,91.38
2022-11-27T00:07:19.811Z,91.34
2022-11-27T00:07:29.642Z,91.38
2022-11-27T00:07:40.610Z,91.38
2022-11-27T00:07:49.738Z,91.48
2022-11-27T00:07:59.699Z,91.48
2022-11-27T00:08:09.594Z,91.44
2022-11-27T00:08:19.636Z,91.48
2022-11-27T00:08:29.612Z,91.48
2022-11-27T00:08:39.604Z,91.58
2022-11-27T00:08:49.656Z,91.48
2022-11-27T00:08:59.615Z,91.58
2022-11-27T00:09:09.600Z,91.58
2022-11-27T00:09:19.658Z,91.58
2022-11-27T00:09:29.626Z,91.54
2022-11-27T00:09:40.140Z,91.64
2022-11-27T00:09:49.594Z,91.69
2022-11-27T00:09:59.673Z,91.69
2022-11-27T00:10:09.614Z,91.58
2022-11-27T00:10:19.599Z,91.69
2022-11-27T00:10:29.592Z,91.58
2022-11-27T00:10:39.608Z,91.79
2022-11-27T00:10:49.585Z,91.69
2022-11-27T00:11:00.498Z,91.60
2022-11-27T00:11:09.620Z,91.79
2022-11-27T00:11:19.596Z,91.79
2022-11-27T00:11:30.536Z,91.79
2022-11-27T00:11:39.616Z,91.79
2022-11-27T00:11:49.592Z,91.79
2022-11-27T00:11:59.644Z,91.75
2022-11-27T00:12:09.586Z,91.79
2022-11-27T00:12:19.584Z,91.79
2022-11-27T00:12:29.694Z,91.75
2022-11-27T00:12:39.647Z,91.64
2022-11-27T00:12:49.581Z,91.89
2022-11-27T00:12:59.596Z,91.79
2022-11-27T00:13:09.632Z,91.75
2022-11-27T00:13:20.487Z,91.79
2022-11-27T00:13:29.696Z,91.75
2022-11-27T00:13:39.622Z,91.79
2022-11-27T00:13:49.606Z,91.79
2022-11-27T00:13:59.610Z,91.75
2022-11-27T00:14:09.574Z,91.79
2022-11-27T00:14:19.602Z,91.75
2022-11-27T00:14:29.596Z,91.69
2022-11-27T00:14:39.569Z,91.79
2022-11-27T00:14:54.656Z,91.79
2022-11-27T00:15:00.480Z,91.69
2022-11-27T00:15:13.373Z,91.69
2022-11-27T00:15:19.613Z,91.64
2022-11-27T00:15:29.777Z,91.69
2022-11-27T00:15:39.604Z,91.79
2022-11-27T00:15:49.674Z,91.79
2022-11-27T00:15:59.607Z,91.79
2022-11-27T00:16:09.638Z,91.79
2022-11-27T00:16:19.679Z,91.75
2022-11-27T00:16:29.745Z,91.64
2022-11-27T00:16:39.558Z,91.64
2022-11-27T00:16:50.546Z,91.79
2022-11-27T00:16:59.558Z,91.69
2022-11-27T00:17:10.677Z,91.64
2022-11-27T00:17:19.631Z,91.64
2022-11-27T00:17:29.556Z,91.69
2022-11-27T00:17:40.486Z,91.58
2022-11-27T00:17:49.557Z,91.48
2022-11-27T00:17:59.566Z,91.48
2022-11-27T00:18:09.584Z,91.48
2022-11-27T00:18:19.588Z,91.48
2022-11-27T00:18:29.573Z,91.34
2022-11-27T00:18:39.665Z,91.28
2022-11-27T00:18:49.605Z,91.34
2022-11-27T00:19:00.476Z,91.38
2022-11-27T00:19:09.564Z,91.34
2022-11-27T00:19:19.555Z,91.34
2022-11-27T00:19:29.557Z,91.38
2022-11-27T00:19:39.748Z,91.38
2022-11-27T00:19:49.547Z,91.38
2022-11-27T00:19:59.546Z,91.38
2022-11-27T00:20:09.573Z,91.48
2022-11-27T00:20:19.614Z,91.48
2022-11-27T00:20:29.911Z,91.44
2022-11-27T00:20:39.600Z,91.38
2022-11-27T00:20:49.644Z,91.03
2022-11-27T00:20:59.552Z,90.86
2022-11-27T00:21:09.547Z,90.51
2022-11-27T00:21:19.565Z,90.45
2022-11-27T00:21:30.517Z,90.20
2022-11-27T00:21:39.541Z,90.20
2022-11-27T00:21:49.553Z,90.10
2022-11-27T00:21:59.566Z,90.14
2022-11-27T00:22:09.602Z,90.10
2022-11-27T00:22:19.547Z,90.14
2022-11-27T00:22:29.658Z,90.00
2022-11-27T00:22:39.551Z,89.94
2022-11-27T00:22:50.603Z,89.83
2022-11-27T00:22:59.670Z,89.73
2022-11-27T00:23:09.533Z,89.83
2022-11-27T00:23:19.569Z,89.94
2022-11-27T00:23:29.701Z,90.04
2022-11-27T00:23:39.528Z,90.25
2022-11-27T00:23:49.542Z,90.35
2022-11-27T00:23:59.575Z,90.45
2022-11-27T00:24:09.532Z,90.31
2022-11-27T00:24:20.496Z,90.35
2022-11-27T00:24:29.562Z,90.14
2022-11-27T00:24:39.838Z,90.25
2022-11-27T00:24:50.484Z,90.14
2022-11-27T00:24:59.579Z,90.25
2022-11-27T00:25:09.543Z,90.35
2022-11-27T00:25:19.546Z,90.31
2022-11-27T00:25:29.742Z,90.31
2022-11-27T00:25:39.549Z,90.35
2022-11-27T00:25:49.550Z,90.39
2022-11-27T00:25:59.594Z,90.25
2022-11-27T00:26:09.538Z,90.28
2022-11-27T00:26:19.563Z,90.35
2022-11-27T00:26:34.459Z,90.35
2022-11-27T00:26:39.547Z,90.49
2022-11-27T00:26:49.536Z,90.45
2022-11-27T00:26:59.518Z,90.45
2022-11-27T00:27:09.525Z,90.45
2022-11-27T00:27:19.549Z,90.45
2022-11-27T00:27:29.513Z,90.49
2022-11-27T00:27:40.544Z,90.49
2022-11-27T00:27:49.625Z,90.55
2022-11-27T00:27:59.533Z,90.59
2022-11-27T00:28:09.532Z,90.66
2022-11-27T00:28:19.511Z,90.66
2022-11-27T00:28:29.508Z,90.70
2022-11-27T00:28:39.537Z,90.70
2022-11-27T00:28:49.625Z,90.70
2022-11-27T00:28:59.516Z,90.74
2022-11-27T00:29:09.538Z,90.70
2022-11-27T00:29:19.505Z,90.55
2022-11-27T00:29:29.610Z,90.45
2022-11-27T00:29:39.524Z,90.59
2022-11-27T00:29:49.509Z,90.59
2022-11-27T00:29:59.639Z,90.55
2022-11-27T00:30:09.547Z,90.70
2022-11-27T00:30:19.507Z,90.59
2022-11-27T00:30:29.525Z,90.70
2022-11-27T00:30:39.579Z,90.80
2022-11-27T00:30:49.550Z,90.80
2022-11-27T00:30:59.704Z,90.70
2022-11-27T00:31:09.633Z,90.84
2022-11-27T00:31:19.583Z,90.66
2022-11-27T00:31:29.682Z,90.70
2022-11-27T00:31:39.569Z,90.74
2022-11-27T00:31:50.506Z,90.74
2022-11-27T00:31:59.549Z,90.70
2022-11-27T00:32:09.566Z,90.70
2022-11-27T00:32:19.504Z,90.49
2022-11-27T00:32:29.515Z,90.59
2022-11-27T00:32:39.549Z,90.59
2022-11-27T00:32:49.500Z,90.39
2022-11-27T00:33:00.494Z,90.39
2022-11-27T00:33:09.498Z,90.39
2022-11-27T00:33:19.507Z,90.39
2022-11-27T00:33:29.557Z,90.49
2022-11-27T00:33:39.507Z,90.59
2022-11-27T00:33:49.493Z,90.76
2022-11-27T00:33:59.489Z,90.91
2022-11-27T00:34:09.507Z,90.91
2022-11-27T00:34:19.507Z,90.91
2022-11-27T00:34:29.526Z,90.80
2022-11-27T00:34:39.817Z,90.91
2022-11-27T00:34:49.541Z,90.91
2022-11-27T00:34:59.479Z,90.95
2022-11-27T00:35:09.559Z,90.80
2022-11-27T00:35:20.069Z,90.70
2022-11-27T00:35:29.589Z,90.66
2022-11-27T00:35:39.489Z,90.86
2022-11-27T00:35:49.570Z,90.80
2022-11-27T00:35:59.481Z,90.91
2022-11-27T00:36:09.502Z,91.01
2022-11-27T00:36:19.510Z,90.86
2022-11-27T00:36:29.483Z,90.97
2022-11-27T00:36:41.147Z,91.01
2022-11-27T00:36:49.511Z,91.11
2022-11-27T00:36:59.578Z,91.11
2022-11-27T00:37:09.480Z,91.22
2022-11-27T00:37:19.506Z,91.22
2022-11-27T00:37:29.476Z,91.32
2022-11-27T00:37:39.484Z,91.42
2022-11-27T00:37:49.506Z,91.52
2022-11-27T00:37:59.495Z,91.52
2022-11-27T00:38:10.063Z,91.63
2022-11-27T00:38:19.482Z,91.77
2022-11-27T00:38:29.470Z,91.73
2022-11-27T00:38:39.488Z,91.83
2022-11-27T00:38:49.488Z,91.83
2022-11-27T00:38:59.482Z,91.83
2022-11-27T00:39:09.483Z,91.94
2022-11-27T00:39:19.470Z,92.08
2022-11-27T00:39:29.478Z,92.04
2022-11-27T00:39:39.493Z,92.14
2022-11-27T00:39:49.460Z,92.25
2022-11-27T00:39:59.510Z,92.25
2022-11-27T00:40:09.562Z,92.35
2022-11-27T00:40:19.466Z,92.41
2022-11-27T00:40:29.472Z,92.46
2022-11-27T00:40:39.462Z,92.55
2022-11-27T00:40:50.061Z,92.60
2022-11-27T00:40:59.537Z,92.66
2022-11-27T00:41:09.468Z,92.70
2022-11-27T00:41:19.596Z,92.76
2022-11-27T00:41:29.486Z,92.76
2022-11-27T00:41:39.550Z,92.80
2022-11-27T00:41:50.001Z,92.76
2022-11-27T00:41:59.994Z,92.76
2022-11-27T00:42:09.456Z,92.91
2022-11-27T00:42:19.461Z,92.86
2022-11-27T00:42:29.482Z,92.97
2022-11-27T00:42:39.452Z,92.91
2022-11-27T00:42:49.458Z,92.97
2022-11-27T00:42:59.452Z,93.01
2022-11-27T00:43:09.452Z,93.07
2022-11-27T00:43:19.461Z,93.07
2022-11-27T00:43:29.473Z,93.07
2022-11-27T00:43:44.458Z,93.07
2022-11-27T00:43:50.040Z,93.07
2022-11-27T00:43:59.451Z,93.07
2022-11-27T00:44:09.468Z,93.07
2022-11-27T00:44:19.470Z,93.07
2022-11-27T00:44:29.439Z,93.07
2022-11-27T00:44:39.864Z,93.12
2022-11-27T00:44:49.499Z,93.07
2022-11-27T00:44:59.520Z,93.07
2022-11-27T00:45:09.463Z,93.12
2022-11-27T00:45:19.457Z,93.07
2022-11-27T00:45:29.527Z,93.18
2022-11-27T00:45:39.492Z,93.18
2022-11-27T00:45:49.433Z,93.18
2022-11-27T00:45:59.998Z,93.18
2022-11-27T00:46:09.558Z,93.18
2022-11-27T00:46:22.678Z,93.18
2022-11-27T00:46:29.796Z,93.07
2022-11-27T00:46:39.609Z,93.22
2022-11-27T00:46:49.507Z,93.22
2022-11-27T00:46:59.496Z,93.22
2022-11-27T00:47:09.465Z,93.18
2022-11-27T00:47:19.428Z,93.32
2022-11-27T00:47:29.991Z,93.28
2022-11-27T00:47:39.456Z,93.28
2022-11-27T00:47:49.425Z,93.18
2022-11-27T00:47:59.436Z,93.28
2022-11-27T00:48:09.447Z,93.13
2022-11-27T00:48:19.468Z,93.18
2022-11-27T00:48:29.448Z,93.18
2022-11-27T00:48:39.463Z,93.28
2022-11-27T00:48:49.420Z,93.28
2022-11-27T00:48:59.452Z,93.28
2022-11-27T00:49:09.439Z,93.32
2022-11-27T00:49:19.996Z,93.38
2022-11-27T00:49:29.557Z,93.49
2022-11-27T00:49:39.420Z,93.38
2022-11-27T00:49:49.431Z,93.44
2022-11-27T00:49:59.419Z,93.49
2022-11-27T00:50:09.451Z,93.49
2022-11-27T00:50:19.426Z,93.49
2022-11-27T00:50:29.421Z,93.49
2022-11-27T00:50:39.425Z,93.59
2022-11-27T00:50:49.430Z,93.49
2022-11-27T00:50:59.435Z,93.49
2022-11-27T00:51:09.494Z,93.59
2022-11-27T00:51:19.563Z,93.44
2022-11-27T00:51:29.459Z,93.44
2022-11-27T00:51:39.409Z,93.38
2022-11-27T00:51:49.418Z,93.44
2022-11-27T00:51:59.425Z,93.49
2022-11-27T00:52:09.409Z,93.59
2022-11-27T00:52:20.162Z,93.49
2022-11-27T00:52:29.435Z,93.44
2022-11-27T00:52:39.416Z,93.59
2022-11-27T00:52:49.425Z,93.49
2022-11-27T00:53:00.026Z,93.44
2022-11-27T00:53:09.442Z,93.59
2022-11-27T00:53:19.402Z,93.54
2022-11-27T00:53:29.437Z,93.49
2022-11-27T00:53:39.405Z,93.49
2022-11-27T00:53:49.408Z,93.38
2022-11-27T00:53:59.408Z,93.28
2022-11-27T00:54:09.481Z,93.18
2022-11-27T00:54:22.766Z,93.07
2022-11-27T00:54:29.413Z,93.07
2022-11-27T00:54:39.620Z,93.12
2022-11-27T00:54:49.444Z,92.97
2022-11-27T00:54:59.558Z,92.97
2022-11-27T00:55:09.406Z,93.07
2022-11-27T00:55:19.461Z,93.18
2022-11-27T00:55:30.005Z,93.22
2022-11-27T00:55:39.420Z,93.28
2022-11-27T00:55:49.460Z,93.28
2022-11-27T00:55:59.398Z,93.28
2022-11-27T00:56:09.446Z,93.28
2022-11-27T00:56:19.396Z,93.22
2022-11-27T00:56:29.595Z,93.28
2022-11-27T00:56:39.986Z,93.18
2022-11-27T00:56:49.424Z,93.22
2022-11-27T00:56:59.406Z,93.22
2022-11-27T00:57:09.422Z,93.03
2022-11-27T00:57:19.383Z,93.07
2022-11-27T00:57:29.393Z,92.97
2022-11-27T00:57:39.442Z,92.80
2022-11-27T00:57:49.390Z,92.70
2022-11-27T00:57:59.397Z,92.50
2022-11-27T00:58:09.422Z,92.29
2022-11-27T00:58:19.384Z,92.19
2022-11-27T00:58:29.417Z,92.04
2022-11-27T00:58:39.538Z,92.08
2022-11-27T00:58:49.389Z,92.08
2022-11-27T00:58:59.424Z,92.08
2022-11-27T00:59:09.382Z,91.83
2022-11-27T00:59:19.379Z,91.73
2022-11-27T00:59:29.411Z,91.67
2022-11-27T00:59:40.001Z,91.52
2022-11-27T00:59:49.405Z,91.52
2022-11-27T00:59:59.386Z,91.56
2022-11-27T01:00:10.060Z,91.56
2022-11-27T01:00:19.391Z,91.56
2022-11-27T01:00:29.525Z,91.52
2022-11-27T01:00:39.394Z,91.67
2022-11-27T01:00:49.380Z,91.63
2022-11-27T01:00:59.415Z,91.77
2022-11-27T01:01:09.398Z,91.73
2022-11-27T01:01:19.450Z,91.83
2022-11-27T01:01:29.454Z,91.83
2022-11-27T01:01:39.483Z,91.94
2022-11-27T01:01:49.448Z,91.98
2022-11-27T01:01:59.493Z,91.94
2022-11-27T01:02:09.444Z,91.88
2022-11-27T01:02:20.077Z,91.94
2022-11-27T01:02:29.419Z,91.83
2022-11-27T01:02:39.544Z,91.73
2022-11-27T01:02:49.548Z,91.63
2022-11-27T01:02:59.463Z,91.63
2022-11-27T01:03:09.460Z,91.63
2022-11-27T01:03:19.419Z,91.67
2022-11-27T01:03:29.361Z,91.56
2022-11-27T01:03:39.381Z,91.42
2022-11-27T01:03:49.378Z,91.42
2022-11-27T01:03:59.384Z,91.46
2022-11-27T01:04:09.407Z,91.36
2022-11-27T01:04:19.535Z,91.32
2022-11-27T01:04:29.366Z,91.42
2022-11-27T01:04:39.755Z,91.46
2022-11-27T01:04:49.355Z,91.42
2022-11-27T01:04:59.451Z,91.52
2022-11-27T01:05:09.361Z,91.56
2022-11-27T01:05:19.357Z,91.52
2022-11-27T01:05:29.353Z,91.63
2022-11-27T01:05:39.370Z,91.63
2022-11-27T01:05:49.358Z,91.67
2022-11-27T01:05:59.362Z,91.67
2022-11-27T01:06:09.441Z,91.63
2022-11-27T01:06:19.370Z,91.63
2022-11-27T01:06:29.372Z,91.67
2022-11-27T01:06:39.387Z,91.73
2022-11-27T01:06:49.397Z,91.77
2022-11-27T01:06:59.368Z,91.73
2022-11-27T01:07:09.449Z,91.73
2022-11-27T01:07:19.398Z,91.83
2022-11-27T01:07:29.744Z,91.83
2022-11-27T01:07:39.393Z,91.79
2022-11-27T01:07:49.414Z,91.88
2022-11-27T01:07:59.448Z,91.94
2022-11-27T01:08:09.374Z,91.83
2022-11-27T01:08:19.347Z,91.88
2022-11-27T01:08:29.341Z,91.83
2022-11-27T01:08:39.368Z,91.94
2022-11-27T01:08:49.350Z,91.83
2022-11-27T01:08:59.345Z,91.98
2022-11-27T01:09:10.002Z,91.88
2022-11-27T01:09:20.031Z,91.94
2022-11-27T01:09:29.346Z,91.83
2022-11-27T01:09:40.084Z,91.83
2022-11-27T01:09:49.354Z,91.83
2022-11-27T01:09:59.355Z,91.94
2022-11-27T01:10:09.371Z,92.04
2022-11-27T01:10:19.363Z,92.08
2022-11-27T01:10:29.358Z,92.00
2022-11-27T01:10:39.332Z,91.98
2022-11-27T01:10:53.387Z,91.94
2022-11-27T01:10:59.348Z,91.83
2022-11-27T01:11:09.326Z,91.83
2022-11-27T01:11:19.374Z,91.83
2022-11-27T01:11:29.381Z,91.83
2022-11-27T01:11:39.343Z,91.88
2022-11-27T01:11:49.327Z,91.83
2022-11-27T01:11:59.410Z,91.94
2022-11-27T01:12:09.348Z,91.83
2022-11-27T01:12:19.337Z,91.83
2022-11-27T01:12:29.355Z,91.83
2022-11-27T01:12:39.338Z,91.83
2022-11-27T01:12:49.331Z,91.83
2022-11-27T01:12:59.365Z,91.94
2022-11-27T01:13:09.338Z,91.94
2022-11-27T01:13:19.991Z,92.08
2022-11-27T01:13:29.422Z,92.04
2022-11-27T01:13:39.317Z,92.14
2022-11-27T01:13:49.328Z,92.14
2022-11-27T01:13:59.321Z,92.08
2022-11-27T01:14:09.327Z,92.08
2022-11-27T01:14:19.446Z,92.04
2022-11-27T01:14:29.318Z,92.04
2022-11-27T01:14:39.524Z,91.98
2022-11-27T01:14:49.335Z,91.98
2022-11-27T01:15:00.005Z,92.04
2022-11-27T01:15:09.386Z,92.04
2022-11-27T01:15:19.309Z,91.98
2022-11-27T01:15:29.346Z,92.04
2022-11-27T01:15:39.372Z,91.98
2022-11-27T01:15:49.383Z,91.98
2022-11-27T01:15:59.389Z,92.08
2022-11-27T01:16:10.158Z,91.98
2022-11-27T01:16:19.379Z,91.94
2022-11-27T01:16:29.468Z,92.04
2022-11-27T01:16:42.910Z,92.14
2022-11-27T01:16:49.404Z,92.08
2022-11-27T01:16:59.428Z,92.10
2022-11-27T01:17:09.370Z,92.14
2022-11-27T01:17:19.304Z,92.14
2022-11-27T01:17:29.320Z,92.14
2022-11-27T01:17:39.316Z,92.29
2022-11-27T01:17:49.310Z,92.14
2022-11-27T01:17:59.310Z,92.19
2022-11-27T01:18:09.471Z,92.10
2022-11-27T01:18:19.360Z,92.14
2022-11-27T01:18:29.355Z,92.08
2022-11-27T01:18:39.347Z,92.08
2022-11-27T01:18:49.311Z,91.98
2022-11-27T01:18:59.322Z,91.98
2022-11-27T01:19:09.306Z,91.94
2022-11-27T01:19:19.312Z,91.88
2022-11-27T01:19:29.303Z,91.83
2022-11-27T01:19:40.001Z,91.73
2022-11-27T01:19:49.324Z,91.63
2022-11-27T01:19:59.302Z,91.83
2022-11-27T01:20:09.303Z,91.88
2022-11-27T01:20:19.308Z,91.88
2022-11-27T01:20:29.996Z,91.83
2022-11-27T01:20:39.295Z,91.83
2022-11-27T01:20:49.324Z,91.94
2022-11-27T01:20:59.370Z,91.98
2022-11-27T01:21:09.298Z,91.98
2022-11-27T01:21:19.293Z,92.08
2022-11-27T01:21:29.308Z,92.08
2022-11-27T01:21:39.298Z,92.04
2022-11-27T01:21:49.286Z,92.14
2022-11-27T01:21:59.292Z,92.29
2022-11-27T01:22:09.304Z,92.25
2022-11-27T01:22:19.608Z,92.35
2022-11-27T01:22:29.383Z,92.33
2022-11-27T01:22:39.364Z,92.25
2022-11-27T01:22:49.311Z,92.19
2022-11-27T01:22:59.284Z,92.19
2022-11-27T01:23:09.406Z,92.19
2022-11-27T01:23:19.309Z,92.04
2022-11-27T01:23:29.279Z,92.08
2022-11-27T01:23:39.289Z,91.94
2022-11-27T01:23:49.301Z,91.94
2022-11-27T01:23:59.283Z,91.94
2022-11-27T01:24:09.306Z,91.94
2022-11-27T01:24:20.029Z,91.88
2022-11-27T01:24:29.293Z,91.77
2022-11-27T01:24:39.581Z,91.88
2022-11-27T01:24:49.423Z,91.88
2022-11-27T01:24:59.270Z,91.98
2022-11-27T01:25:09.403Z,92.04
2022-11-27T01:25:21.909Z,92.14
2022-11-27T01:25:29.280Z,92.23
2022-11-27T01:25:39.283Z,92.29
2022-11-27T01:25:50.029Z,92.40
2022-11-27T01:26:00.003Z,92.44
2022-11-27T01:26:09.514Z,92.40
2022-11-27T01:26:19.267Z,92.50
2022-11-27T01:26:29.291Z,92.50
2022-11-27T01:26:39.302Z,92.50
2022-11-27T01:26:49.269Z,92.64
2022-11-27T01:27:00.000Z,92.60
2022-11-27T01:27:09.275Z,92.60
2022-11-27T01:27:19.284Z,92.50
2022-11-27T01:27:29.305Z,92.50
2022-11-27T01:27:39.306Z,92.60
2022-11-27T01:27:50.000Z,92.60
2022-11-27T01:27:59.261Z,92.60
2022-11-27T01:28:09.258Z,92.60
2022-11-27T01:28:19.283Z,92.60
2022-11-27T01:28:29.262Z,92.70
2022-11-27T01:28:39.254Z,92.60
2022-11-27T01:28:49.254Z,92.70
2022-11-27T01:28:59.385Z,92.70
2022-11-27T01:29:09.257Z,92.70
2022-11-27T01:29:19.253Z,92.70
2022-11-27T01:29:32.050Z,92.60
2022-11-27T01:29:39.435Z,92.64
2022-11-27T01:29:49.260Z,92.60
2022-11-27T01:29:59.280Z,92.74
2022-11-27T01:30:09.267Z,92.74
2022-11-27T01:30:19.260Z,92.80
2022-11-27T01:30:29.284Z,92.80
2022-11-27T01:30:39.270Z,92.80
2022-11-27T01:30:49.321Z,92.91
2022-11-27T01:30:59.338Z,92.95
2022-11-27T01:31:10.072Z,92.95
2022-11-27T01:31:20.104Z,92.85
2022-11-27T01:31:29.502Z,92.80
2022-11-27T01:31:39.313Z,92.91
2022-11-27T01:31:49.328Z,92.80
2022-11-27T01:31:59.241Z,92.95
2022-11-27T01:32:09.237Z,92.80
2022-11-27T01:32:19.254Z,92.91
2022-11-27T01:32:29.239Z,92.95
2022-11-27T01:32:39.319Z,92.95
2022-11-27T01:32:49.284Z,92.91
2022-11-27T01:32:59.248Z,92.95
2022-11-27T01:33:10.002Z,92.80
2022-11-27T01:33:19.277Z,92.80
2022-11-27T01:33:29.252Z,92.85
2022-11-27T01:33:39.250Z,92.85
2022-11-27T01:33:49.383Z,92.91
2022-11-27T01:33:59.228Z,92.80
2022-11-27T01:34:10.005Z,92.91
2022-11-27T01:34:19.226Z,93.01
2022-11-27T01:34:29.259Z,93.01
2022-11-27T01:34:39.585Z,92.95
2022-11-27T01:34:49.231Z,92.95
2022-11-27T01:34:59.265Z,92.91
2022-11-27T01:35:09.368Z,92.95
2022-11-27T01:35:19.233Z,92.95
2022-11-27T01:35:29.325Z,92.85
2022-11-27T01:35:39.237Z,92.80
2022-11-27T01:35:49.238Z,92.85
2022-11-27T01:35:59.227Z,92.80
2022-11-27T01:36:09.276Z,92.74
2022-11-27T01:36:19.237Z,92.74
2022-11-27T01:36:29.238Z,92.60
2022-11-27T01:36:39.237Z,92.74
2022-11-27T01:36:49.241Z,92.74
2022-11-27T01:37:00.028Z,92.70
2022-11-27T01:37:09.219Z,92.70
2022-11-27T01:37:19.234Z,92.74
2022-11-27T01:37:29.227Z,92.74
2022-11-27T01:37:39.213Z,92.54
2022-11-27T01:37:49.311Z,92.44
2022-11-27T01:37:59.240Z,92.23
2022-11-27T01:38:10.027Z,92.08
2022-11-27T01:38:19.252Z,92.08
2022-11-27T01:38:29.222Z,92.13
2022-11-27T01:38:39.225Z,92.08
2022-11-27T01:38:50.042Z,92.08
2022-11-27T01:38:59.351Z,91.98
2022-11-27T01:39:09.997Z,91.88
2022-11-27T01:39:19.231Z,91.92
2022-11-27T01:39:29.269Z,91.77
2022-11-27T01:39:39.226Z,91.67
2022-11-27T01:39:49.219Z,91.77
2022-11-27T01:39:59.230Z,91.67
2022-11-27T01:40:09.209Z,91.83
2022-11-27T01:40:19.230Z,91.88
2022-11-27T01:40:29.203Z,91.88
2022-11-27T01:40:39.216Z,91.88
2022-11-27T01:40:49.299Z,91.88
2022-11-27T01:40:59.205Z,91.88
2022-11-27T01:41:09.236Z,91.98
2022-11-27T01:41:19.234Z,91.98
2022-11-27T01:41:29.207Z,92.08
2022-11-27T01:41:39.201Z,92.08
2022-11-27T01:41:49.232Z,92.19
2022-11-27T01:41:59.211Z,92.29
2022-11-27T01:42:09.201Z,92.33
2022-11-27T01:42:19.241Z,92.33
2022-11-27T01:42:29.241Z,92.29
2022-11-27T01:42:39.216Z,92.33
2022-11-27T01:42:49.331Z,92.40
2022-11-27T01:42:59.254Z,92.29
2022-11-27T01:43:10.035Z,92.29
2022-11-27T01:43:19.192Z,92.44
2022-11-27T01:43:29.191Z,92.40
2022-11-27T01:43:39.203Z,92.40
2022-11-27T01:43:49.191Z,92.29
2022-11-27T01:43:59.224Z,92.19
2022-11-27T01:44:09.206Z,92.08
2022-11-27T01:44:19.194Z,91.88
2022-11-27T01:44:29.191Z,91.88
2022-11-27T01:44:39.664Z,91.88
2022-11-27T01:44:49.204Z,91.88
2022-11-27T01:45:00.016Z,91.92
2022-11-27T01:45:09.282Z,92.02
2022-11-27T01:45:20.019Z,91.92
2022-11-27T01:45:29.197Z,91.92
2022-11-27T01:45:39.205Z,91.67
2022-11-27T01:45:50.020Z,91.56
2022-11-27T01:46:00.085Z,91.46
2022-11-27T01:46:09.228Z,91.30
2022-11-27T01:46:19.244Z,91.40
2022-11-27T01:46:29.330Z,91.40
2022-11-27T01:46:39.285Z,91.50
2022-11-27T01:46:49.255Z,91.56
2022-11-27T01:46:59.233Z,91.71
2022-11-27T01:47:09.178Z,91.67
2022-11-27T01:47:19.178Z,91.71
2022-11-27T01:47:29.188Z,91.67
2022-11-27T01:47:39.180Z,91.67
2022-11-27T01:47:49.172Z,91.56
2022-11-27T01:47:59.185Z,91.61
2022-11-27T01:48:09.561Z,91.56
2022-11-27T01:48:19.221Z,91.50
2022-11-27T01:48:29.289Z,91.42
2022-11-27T01:48:39.181Z,91.40
2022-11-27T01:48:49.170Z,91.46
2022-11-27T01:49:00.037Z,91.36
2022-11-27T01:49:09.173Z,91.61
2022-11-27T01:49:19.177Z,91.71
2022-11-27T01:49:29.164Z,91.82
2022-11-27T01:49:39.165Z,91.67
2022-11-27T01:49:49.199Z,91.82
2022-11-27T01:50:00.021Z,91.82
2022-11-27T01:50:09.175Z,91.92
2022-11-27T01:50:19.180Z,91.92
2022-11-27T01:50:29.205Z,91.92
2022-11-27T01:50:39.174Z,91.98
2022-11-27T01:50:49.169Z,91.98
2022-11-27T01:50:59.178Z,92.02
2022-11-27T01:51:09.180Z,92.08
2022-11-27T01:51:19.191Z,91.98
2022-11-27T01:51:29.999Z,92.08
2022-11-27T01:51:39.271Z,92.13
2022-11-27T01:51:49.176Z,92.23
2022-11-27T01:51:59.185Z,92.29
2022-11-27T01:52:09.162Z,92.33
2022-11-27T01:52:19.183Z,92.40
2022-11-27T01:52:29.151Z,92.50
2022-11-27T01:52:39.155Z,92.50
2022-11-27T01:52:49.157Z,92.54
2022-11-27T01:52:59.164Z,92.64
2022-11-27T01:53:09.214Z,92.64
2022-11-27T01:53:19.637Z,92.60
2022-11-27T01:53:32.001Z,92.74
2022-11-27T01:53:39.161Z,92.74
2022-11-27T01:53:49.181Z,92.74
2022-11-27T01:53:59.146Z,92.80
2022-11-27T01:54:09.156Z,92.80
2022-11-27T01:54:19.154Z,92.85
2022-11-27T01:54:29.159Z,92.74
2022-11-27T01:54:39.444Z,92.80
2022-11-27T01:54:49.225Z,92.80
2022-11-27T01:54:59.167Z,92.85
2022-11-27T01:55:09.163Z,92.80
2022-11-27T01:55:19.207Z,92.85
2022-11-27T01:55:29.166Z,92.95
2022-11-27T01:55:39.153Z,92.95
2022-11-27T01:55:49.146Z,92.95
2022-11-27T01:55:59.164Z,92.91
2022-11-27T01:56:09.161Z,93.05
2022-11-27T01:56:19.157Z,93.05
2022-11-27T01:56:29.144Z,93.05
2022-11-27T01:56:39.148Z,93.05
2022-11-27T01:56:50.004Z,93.05
2022-11-27T01:56:59.145Z,93.05
2022-11-27T01:57:10.098Z,92.95
2022-11-27T01:57:19.157Z,92.85
2022-11-27T01:57:29.140Z,92.64
2022-11-27T01:57:39.179Z,92.54
2022-11-27T01:57:49.145Z,92.50
2022-11-27T01:57:59.141Z,92.33
2022-11-27T01:58:09.131Z,92.23
2022-11-27T01:58:19.226Z,92.23
2022-11-27T01:58:29.324Z,92.13
2022-11-27T01:58:39.172Z,92.13
2022-11-27T01:58:49.127Z,92.13
2022-11-27T01:59:00.045Z,92.23
2022-11-27T01:59:09.129Z,92.23
2022-11-27T01:59:19.128Z,92.23
2022-11-27T01:59:29.131Z,92.23
2022-11-27T01:59:39.169Z,92.13
2022-11-27T01:59:49.146Z,92.13
2022-11-27T02:00:00.012Z,92.02
2022-11-27T02:00:09.224Z,91.92
2022-11-27T02:00:19.135Z,91.92
2022-11-27T02:00:29.136Z,91.92
2022-11-27T02:00:39.144Z,91.92
2022-11-27T02:00:49.142Z,91.92
2022-11-27T02:00:59.325Z,91.92
2022-11-27T02:01:09.143Z,91.92
2022-11-27T02:01:20.075Z,91.88
2022-11-27T02:01:29.210Z,91.92
2022-11-27T02:01:39.175Z,91.82
2022-11-27T02:01:49.206Z,91.86
2022-11-27T02:01:59.239Z,91.92
2022-11-27T02:02:09.213Z,91.77
2022-11-27T02:02:19.201Z,91.92
2022-11-27T02:02:29.221Z,92.02
2022-11-27T02:02:39.295Z,92.02
2022-11-27T02:02:49.409Z,92.02
2022-11-27T02:02:59.386Z,92.13
2022-11-27T02:03:09.174Z,92.02
2022-11-27T02:03:19.204Z,92.13
2022-11-27T02:03:29.111Z,92.13
2022-11-27T02:03:39.281Z,92.02
2022-11-27T02:03:49.147Z,92.13
2022-11-27T02:03:59.107Z,92.02
2022-11-27T02:04:09.115Z,91.82
2022-11-27T02:04:19.160Z,91.86
2022-11-27T02:04:29.109Z,91.82
2022-11-27T02:04:40.378Z,91.82
2022-11-27T02:04:49.132Z,91.92
2022-11-27T02:04:59.109Z,91.92
2022-11-27T02:05:09.121Z,91.98
2022-11-27T02:05:19.102Z,92.02
2022-11-27T02:05:29.101Z,92.13
2022-11-27T02:05:39.105Z,92.13
2022-11-27T02:05:49.098Z,92.27
2022-11-27T02:05:59.114Z,92.23
2022-11-27T02:06:09.096Z,92.23
2022-11-27T02:06:20.039Z,92.23
2022-11-27T02:06:29.112Z,92.33
2022-11-27T02:06:39.099Z,92.44
2022-11-27T02:06:49.165Z,92.33
2022-11-27T02:06:59.103Z,92.50
2022-11-27T02:07:09.097Z,92.54
2022-11-27T02:07:19.162Z,92.54
2022-11-27T02:07:29.178Z,92.64
2022-11-27T02:07:39.122Z,92.64
2022-11-27T02:07:49.220Z,92.74
2022-11-27T02:07:59.330Z,92.85
2022-11-27T02:08:10.005Z,92.85
2022-11-27T02:08:19.104Z,92.85
2022-11-27T02:08:29.090Z,92.85
2022-11-27T02:08:39.096Z,92.99